sensor_id;sensor_type;location;lat;lon;timestamp;P1;durP1;ratioP1;P2;durP2;ratioP2
27857;SDS011;16852;51.446;6.528;2024-03-25T00:00:08;20.27;;;4.82;;
27857;SDS011;16852;51.446;6.528;2024-03-25T00:02:13;18.17;;;4.97;;
27857;SDS011;16852;51.446;6.528;2024-03-25T00:04:13;21.65;;;4.45;;
27857;SDS011;16852;51.446;6.528;2024-03-25T00:06:14;15.98;;;4.32;;
27857;SDS011;16852;51.446;6.528;2024-03-25T00:08:15;17.70;;;4.10;;
27857;SDS011;16852;51.446;6.528;2024-03-25T00:10:15;14.80;;;3.67;;
27857;SDS011;16852;51.446;6.528;2024-03-25T00:12:16;16.17;;;4.00;;
27857;SDS011;16852;51.446;6.528;2024-03-25T00:14:16;17.42;;;4.47;;
27857;SDS011;16852;51.446;6.528;2024-03-25T00:16:17;20.10;;;4.47;;
27857;SDS011;16852;51.446;6.528;2024-03-25T00:18:17;21.45;;;4.18;;
27857;SDS011;16852;51.446;6.528;2024-03-25T00:20:18;12.85;;;3.25;;
27857;SDS011;16852;51.446;6.528;2024-03-25T00:22:19;19.75;;;3.25;;
27857;SDS011;16852;51.446;6.528;2024-03-25T00:24:20;15.00;;;3.80;;
27857;SDS011;16852;51.446;6.528;2024-03-25T00:26:21;16.30;;;4.03;;
27857;SDS011;16852;51.446;6.528;2024-03-25T00:28:22;14.05;;;3.13;;
27857;SDS011;16852;51.446;6.528;2024-03-25T00:30:23;13.27;;;2.83;;
27857;SDS011;16852;51.446;6.528;2024-03-25T00:32:24;9.63;;;2.88;;
27857;SDS011;16852;51.446;6.528;2024-03-25T00:34:24;13.10;;;3.33;;
27857;SDS011;16852;51.446;6.528;2024-03-25T00:36:25;10.82;;;2.97;;
27857;SDS011;16852;51.446;6.528;2024-03-25T00:38:26;11.60;;;2.42;;
27857;SDS011;16852;51.446;6.528;2024-03-25T00:40:26;11.27;;;3.22;;
27857;SDS011;16852;51.446;6.528;2024-03-25T00:42:27;12.63;;;2.95;;
27857;SDS011;16852;51.446;6.528;2024-03-25T00:44:27;9.18;;;2.80;;
27857;SDS011;16852;51.446;6.528;2024-03-25T00:46:28;15.77;;;3.10;;
27857;SDS011;16852;51.446;6.528;2024-03-25T00:48:29;15.98;;;4.03;;
27857;SDS011;16852;51.446;6.528;2024-03-25T00:50:29;16.33;;;3.67;;
27857;SDS011;16852;51.446;6.528;2024-03-25T00:52:30;11.30;;;2.70;;
27857;SDS011;16852;51.446;6.528;2024-03-25T00:54:31;12.75;;;3.20;;
27857;SDS011;16852;51.446;6.528;2024-03-25T00:56:32;12.57;;;3.42;;
27857;SDS011;16852;51.446;6.528;2024-03-25T00:58:32;18.55;;;4.25;;
27857;SDS011;16852;51.446;6.528;2024-03-25T01:00:33;11.80;;;3.22;;
27857;SDS011;16852;51.446;6.528;2024-03-25T01:02:33;15.05;;;3.75;;
27857;SDS011;16852;51.446;6.528;2024-03-25T01:04:34;18.27;;;3.78;;
27857;SDS011;16852;51.446;6.528;2024-03-25T01:06:34;14.20;;;3.78;;
27857;SDS011;16852;51.446;6.528;2024-03-25T01:08:35;14.75;;;3.58;;
27857;SDS011;16852;51.446;6.528;2024-03-25T01:10:36;15.18;;;3.85;;
27857;SDS011;16852;51.446;6.528;2024-03-25T01:12:36;16.05;;;3.05;;
27857;SDS011;16852;51.446;6.528;2024-03-25T01:14:37;12.27;;;2.80;;
27857;SDS011;16852;51.446;6.528;2024-03-25T01:16:37;20.75;;;3.83;;
27857;SDS011;16852;51.446;6.528;2024-03-25T01:18:38;15.23;;;3.40;;
27857;SDS011;16852;51.446;6.528;2024-03-25T01:20:39;19.45;;;3.78;;
27857;SDS011;16852;51.446;6.528;2024-03-25T01:22:39;12.93;;;3.00;;
27857;SDS011;16852;51.446;6.528;2024-03-25T01:24:40;12.93;;;2.95;;
27857;SDS011;16852;51.446;6.528;2024-03-25T01:26:40;16.88;;;3.25;;
27857;SDS011;16852;51.446;6.528;2024-03-25T01:28:41;15.23;;;3.50;;
27857;SDS011;16852;51.446;6.528;2024-03-25T01:30:41;23.40;;;4.13;;
27857;SDS011;16852;51.446;6.528;2024-03-25T01:32:43;17.38;;;3.97;;
27857;SDS011;16852;51.446;6.528;2024-03-25T01:34:44;14.73;;;3.92;;
27857;SDS011;16852;51.446;6.528;2024-03-25T01:36:45;13.32;;;2.90;;
27857;SDS011;16852;51.446;6.528;2024-03-25T01:38:45;13.73;;;3.40;;
27857;SDS011;16852;51.446;6.528;2024-03-25T01:40:46;15.80;;;3.60;;
27857;SDS011;16852;51.446;6.528;2024-03-25T01:43:00;11.25;;;3.13;;
27857;SDS011;16852;51.446;6.528;2024-03-25T01:45:02;11.27;;;2.92;;
27857;SDS011;16852;51.446;6.528;2024-03-25T01:47:03;10.75;;;2.88;;
27857;SDS011;16852;51.446;6.528;2024-03-25T01:49:04;12.45;;;3.40;;
27857;SDS011;16852;51.446;6.528;2024-03-25T01:51:05;14.40;;;3.70;;
27857;SDS011;16852;51.446;6.528;2024-03-25T01:53:05;13.70;;;3.08;;
27857;SDS011;16852;51.446;6.528;2024-03-25T01:55:07;12.20;;;2.83;;
27857;SDS011;16852;51.446;6.528;2024-03-25T01:57:12;16.38;;;3.60;;
27857;SDS011;16852;51.446;6.528;2024-03-25T01:59:14;12.95;;;3.45;;
27857;SDS011;16852;51.446;6.528;2024-03-25T02:03:19;13.87;;;3.13;;
27857;SDS011;16852;51.446;6.528;2024-03-25T02:05:20;13.35;;;3.40;;
27857;SDS011;16852;51.446;6.528;2024-03-25T02:07:21;14.35;;;3.50;;
27857;SDS011;16852;51.446;6.528;2024-03-25T02:09:26;14.73;;;3.28;;
27857;SDS011;16852;51.446;6.528;2024-03-25T02:11:27;14.20;;;2.87;;
27857;SDS011;16852;51.446;6.528;2024-03-25T02:13:28;20.27;;;3.50;;
27857;SDS011;16852;51.446;6.528;2024-03-25T02:15:29;11.18;;;3.38;;
27857;SDS011;16852;51.446;6.528;2024-03-25T02:17:30;13.45;;;3.72;;
27857;SDS011;16852;51.446;6.528;2024-03-25T02:19:31;13.57;;;3.30;;
27857;SDS011;16852;51.446;6.528;2024-03-25T02:21:32;14.32;;;2.95;;
27857;SDS011;16852;51.446;6.528;2024-03-25T02:23:32;10.40;;;3.00;;
27857;SDS011;16852;51.446;6.528;2024-03-25T02:25:36;15.80;;;3.90;;
27857;SDS011;16852;51.446;6.528;2024-03-25T02:27:38;13.80;;;3.33;;
27857;SDS011;16852;51.446;6.528;2024-03-25T02:29:39;12.70;;;3.55;;
27857;SDS011;16852;51.446;6.528;2024-03-25T02:31:40;13.30;;;3.25;;
27857;SDS011;16852;51.446;6.528;2024-03-25T02:33:41;13.18;;;3.28;;
27857;SDS011;16852;51.446;6.528;2024-03-25T02:35:42;13.63;;;4.05;;
27857;SDS011;16852;51.446;6.528;2024-03-25T02:37:44;15.10;;;3.72;;
27857;SDS011;16852;51.446;6.528;2024-03-25T02:39:45;19.70;;;4.35;;
27857;SDS011;16852;51.446;6.528;2024-03-25T02:41:46;11.13;;;3.67;;
27857;SDS011;16852;51.446;6.528;2024-03-25T02:43:46;17.42;;;3.78;;
27857;SDS011;16852;51.446;6.528;2024-03-25T02:45:47;9.43;;;3.22;;
27857;SDS011;16852;51.446;6.528;2024-03-25T02:47:48;15.43;;;3.17;;
27857;SDS011;16852;51.446;6.528;2024-03-25T02:49:49;10.45;;;2.97;;
27857;SDS011;16852;51.446;6.528;2024-03-25T02:51:49;10.02;;;3.17;;
27857;SDS011;16852;51.446;6.528;2024-03-25T02:53:50;16.33;;;3.85;;
27857;SDS011;16852;51.446;6.528;2024-03-25T02:55:51;17.00;;;3.70;;
27857;SDS011;16852;51.446;6.528;2024-03-25T02:57:51;14.25;;;3.30;;
27857;SDS011;16852;51.446;6.528;2024-03-25T02:59:52;14.38;;;3.67;;
27857;SDS011;16852;51.446;6.528;2024-03-25T03:01:52;16.65;;;3.45;;
27857;SDS011;16852;51.446;6.528;2024-03-25T03:03:53;16.33;;;4.20;;
27857;SDS011;16852;51.446;6.528;2024-03-25T03:05:54;13.18;;;3.53;;
27857;SDS011;16852;51.446;6.528;2024-03-25T03:07:54;15.80;;;4.32;;
27857;SDS011;16852;51.446;6.528;2024-03-25T03:09:55;15.30;;;4.55;;
27857;SDS011;16852;51.446;6.528;2024-03-25T03:11:55;12.90;;;3.65;;
27857;SDS011;16852;51.446;6.528;2024-03-25T03:13:56;19.23;;;4.43;;
27857;SDS011;16852;51.446;6.528;2024-03-25T03:15:56;16.35;;;4.00;;
27857;SDS011;16852;51.446;6.528;2024-03-25T03:17:57;12.45;;;3.60;;
27857;SDS011;16852;51.446;6.528;2024-03-25T03:19:57;19.10;;;4.97;;
27857;SDS011;16852;51.446;6.528;2024-03-25T03:21:58;18.85;;;4.38;;
27857;SDS011;16852;51.446;6.528;2024-03-25T03:23:59;13.10;;;4.30;;
27857;SDS011;16852;51.446;6.528;2024-03-25T03:25:59;14.70;;;3.55;;
27857;SDS011;16852;51.446;6.528;2024-03-25T03:28:00;11.73;;;3.28;;
27857;SDS011;16852;51.446;6.528;2024-03-25T03:30:02;14.57;;;3.73;;
27857;SDS011;16852;51.446;6.528;2024-03-25T03:32:03;14.63;;;3.88;;
27857;SDS011;16852;51.446;6.528;2024-03-25T03:34:04;15.45;;;3.92;;
27857;SDS011;16852;51.446;6.528;2024-03-25T03:36:04;14.75;;;4.10;;
27857;SDS011;16852;51.446;6.528;2024-03-25T03:38:05;11.10;;;3.70;;
27857;SDS011;16852;51.446;6.528;2024-03-25T03:40:06;16.70;;;3.92;;
27857;SDS011;16852;51.446;6.528;2024-03-25T03:42:08;9.48;;;3.15;;
27857;SDS011;16852;51.446;6.528;2024-03-25T03:44:08;12.43;;;4.50;;
27857;SDS011;16852;51.446;6.528;2024-03-25T03:46:09;19.83;;;4.45;;
27857;SDS011;16852;51.446;6.528;2024-03-25T03:48:10;16.52;;;4.60;;
27857;SDS011;16852;51.446;6.528;2024-03-25T03:50:11;17.13;;;4.68;;
27857;SDS011;16852;51.446;6.528;2024-03-25T03:52:11;12.93;;;4.15;;
27857;SDS011;16852;51.446;6.528;2024-03-25T03:54:12;13.27;;;3.80;;
27857;SDS011;16852;51.446;6.528;2024-03-25T03:56:12;13.45;;;4.40;;
27857;SDS011;16852;51.446;6.528;2024-03-25T03:58:13;13.10;;;4.30;;
27857;SDS011;16852;51.446;6.528;2024-03-25T04:00:13;15.45;;;4.18;;
27857;SDS011;16852;51.446;6.528;2024-03-25T04:02:14;15.63;;;4.50;;
27857;SDS011;16852;51.446;6.528;2024-03-25T04:04:15;15.52;;;4.03;;
27857;SDS011;16852;51.446;6.528;2024-03-25T04:06:16;15.25;;;4.47;;
27857;SDS011;16852;51.446;6.528;2024-03-25T04:08:16;20.20;;;4.55;;
27857;SDS011;16852;51.446;6.528;2024-03-25T04:10:17;12.20;;;3.85;;
27857;SDS011;16852;51.446;6.528;2024-03-25T04:12:17;14.13;;;4.60;;
27857;SDS011;16852;51.446;6.528;2024-03-25T04:14:19;14.13;;;4.45;;
27857;SDS011;16852;51.446;6.528;2024-03-25T04:16:20;11.95;;;3.72;;
27857;SDS011;16852;51.446;6.528;2024-03-25T04:18:22;15.32;;;4.13;;
27857;SDS011;16852;51.446;6.528;2024-03-25T04:20:23;16.77;;;4.63;;
27857;SDS011;16852;51.446;6.528;2024-03-25T04:22:24;13.77;;;4.38;;
27857;SDS011;16852;51.446;6.528;2024-03-25T04:24:26;15.82;;;4.35;;
27857;SDS011;16852;51.446;6.528;2024-03-25T04:26:26;20.88;;;4.70;;
27857;SDS011;16852;51.446;6.528;2024-03-25T04:28:27;12.82;;;3.95;;
27857;SDS011;16852;51.446;6.528;2024-03-25T04:30:28;10.00;;;3.53;;
27857;SDS011;16852;51.446;6.528;2024-03-25T04:32:28;12.60;;;3.70;;
27857;SDS011;16852;51.446;6.528;2024-03-25T04:34:29;13.20;;;4.40;;
27857;SDS011;16852;51.446;6.528;2024-03-25T04:36:30;18.67;;;4.35;;
27857;SDS011;16852;51.446;6.528;2024-03-25T04:38:31;13.25;;;4.15;;
27857;SDS011;16852;51.446;6.528;2024-03-25T04:40:31;13.50;;;3.45;;
27857;SDS011;16852;51.446;6.528;2024-03-25T04:42:32;9.27;;;3.60;;
27857;SDS011;16852;51.446;6.528;2024-03-25T04:44:32;14.32;;;3.88;;
27857;SDS011;16852;51.446;6.528;2024-03-25T04:46:33;12.70;;;4.00;;
27857;SDS011;16852;51.446;6.528;2024-03-25T04:48:33;10.07;;;4.18;;
27857;SDS011;16852;51.446;6.528;2024-03-25T04:50:34;13.27;;;4.20;;
27857;SDS011;16852;51.446;6.528;2024-03-25T04:52:35;12.00;;;4.05;;
27857;SDS011;16852;51.446;6.528;2024-03-25T04:54:36;8.73;;;3.78;;
27857;SDS011;16852;51.446;6.528;2024-03-25T04:56:36;13.45;;;4.50;;
27857;SDS011;16852;51.446;6.528;2024-03-25T04:58:37;14.05;;;4.05;;
27857;SDS011;16852;51.446;6.528;2024-03-25T05:00:38;16.85;;;4.40;;
27857;SDS011;16852;51.446;6.528;2024-03-25T05:02:39;12.10;;;3.72;;
27857;SDS011;16852;51.446;6.528;2024-03-25T05:04:39;15.82;;;4.30;;
27857;SDS011;16852;51.446;6.528;2024-03-25T05:06:40;11.48;;;4.07;;
27857;SDS011;16852;51.446;6.528;2024-03-25T05:08:41;11.13;;;4.13;;
27857;SDS011;16852;51.446;6.528;2024-03-25T05:10:41;15.43;;;4.25;;
27857;SDS011;16852;51.446;6.528;2024-03-25T05:12:42;11.50;;;4.30;;
27857;SDS011;16852;51.446;6.528;2024-03-25T05:14:44;11.20;;;4.13;;
27857;SDS011;16852;51.446;6.528;2024-03-25T05:16:44;16.40;;;4.85;;
27857;SDS011;16852;51.446;6.528;2024-03-25T05:18:45;14.55;;;4.60;;
27857;SDS011;16852;51.446;6.528;2024-03-25T05:20:45;10.20;;;3.85;;
27857;SDS011;16852;51.446;6.528;2024-03-25T05:22:46;13.63;;;4.65;;
27857;SDS011;16852;51.446;6.528;2024-03-25T05:24:47;9.68;;;4.20;;
27857;SDS011;16852;51.446;6.528;2024-03-25T05:26:47;14.38;;;4.20;;
27857;SDS011;16852;51.446;6.528;2024-03-25T05:28:54;11.10;;;3.92;;
27857;SDS011;16852;51.446;6.528;2024-03-25T05:30:55;13.30;;;4.68;;
27857;SDS011;16852;51.446;6.528;2024-03-25T05:32:56;14.10;;;4.50;;
27857;SDS011;16852;51.446;6.528;2024-03-25T05:34:57;14.27;;;4.20;;
27857;SDS011;16852;51.446;6.528;2024-03-25T05:36:57;9.68;;;3.80;;
27857;SDS011;16852;51.446;6.528;2024-03-25T05:38:58;11.25;;;4.07;;
27857;SDS011;16852;51.446;6.528;2024-03-25T05:41:00;11.10;;;4.38;;
27857;SDS011;16852;51.446;6.528;2024-03-25T05:43:00;11.30;;;3.83;;
27857;SDS011;16852;51.446;6.528;2024-03-25T05:45:01;9.45;;;3.67;;
27857;SDS011;16852;51.446;6.528;2024-03-25T05:47:02;12.43;;;4.40;;
27857;SDS011;16852;51.446;6.528;2024-03-25T05:49:03;10.80;;;3.60;;
27857;SDS011;16852;51.446;6.528;2024-03-25T05:51:04;12.95;;;4.22;;
27857;SDS011;16852;51.446;6.528;2024-03-25T05:53:06;11.73;;;4.00;;
27857;SDS011;16852;51.446;6.528;2024-03-25T05:55:07;11.13;;;3.83;;
27857;SDS011;16852;51.446;6.528;2024-03-25T05:57:09;13.95;;;5.05;;
27857;SDS011;16852;51.446;6.528;2024-03-25T05:59:10;10.68;;;4.10;;
27857;SDS011;16852;51.446;6.528;2024-03-25T06:01:10;8.93;;;4.13;;
27857;SDS011;16852;51.446;6.528;2024-03-25T06:03:11;19.52;;;5.18;;
27857;SDS011;16852;51.446;6.528;2024-03-25T06:05:12;13.52;;;4.47;;
27857;SDS011;16852;51.446;6.528;2024-03-25T06:07:12;14.00;;;4.78;;
27857;SDS011;16852;51.446;6.528;2024-03-25T06:09:13;10.93;;;4.20;;
27857;SDS011;16852;51.446;6.528;2024-03-25T06:11:13;8.23;;;4.15;;
27857;SDS011;16852;51.446;6.528;2024-03-25T06:13:14;17.45;;;5.47;;
27857;SDS011;16852;51.446;6.528;2024-03-25T06:15:15;10.38;;;4.25;;
27857;SDS011;16852;51.446;6.528;2024-03-25T06:17:16;10.32;;;4.40;;
27857;SDS011;16852;51.446;6.528;2024-03-25T06:19:16;10.90;;;4.78;;
27857;SDS011;16852;51.446;6.528;2024-03-25T06:21:17;11.18;;;4.35;;
27857;SDS011;16852;51.446;6.528;2024-03-25T06:23:21;11.68;;;4.45;;
27857;SDS011;16852;51.446;6.528;2024-03-25T06:25:28;17.13;;;5.85;;
27857;SDS011;16852;51.446;6.528;2024-03-25T06:27:29;15.38;;;5.50;;
27857;SDS011;16852;51.446;6.528;2024-03-25T06:29:31;15.10;;;5.53;;
27857;SDS011;16852;51.446;6.528;2024-03-25T06:31:32;17.38;;;5.22;;
27857;SDS011;16852;51.446;6.528;2024-03-25T06:33:51;15.75;;;4.60;;
27857;SDS011;16852;51.446;6.528;2024-03-25T06:36:10;10.75;;;4.72;;
27857;SDS011;16852;51.446;6.528;2024-03-25T06:38:11;15.10;;;4.63;;
27857;SDS011;16852;51.446;6.528;2024-03-25T06:40:11;10.30;;;4.70;;
27857;SDS011;16852;51.446;6.528;2024-03-25T06:42:12;13.63;;;4.85;;
27857;SDS011;16852;51.446;6.528;2024-03-25T06:44:13;17.10;;;5.25;;
27857;SDS011;16852;51.446;6.528;2024-03-25T06:46:13;10.82;;;4.53;;
27857;SDS011;16852;51.446;6.528;2024-03-25T06:48:14;12.50;;;5.07;;
27857;SDS011;16852;51.446;6.528;2024-03-25T06:50:14;12.70;;;4.53;;
27857;SDS011;16852;51.446;6.528;2024-03-25T06:52:15;8.63;;;4.00;;
27857;SDS011;16852;51.446;6.528;2024-03-25T06:54:15;12.70;;;4.25;;
27857;SDS011;16852;51.446;6.528;2024-03-25T06:56:17;9.70;;;3.95;;
27857;SDS011;16852;51.446;6.528;2024-03-25T06:58:18;15.98;;;5.25;;
27857;SDS011;16852;51.446;6.528;2024-03-25T07:00:19;7.57;;;4.07;;
27857;SDS011;16852;51.446;6.528;2024-03-25T07:02:22;10.48;;;4.75;;
27857;SDS011;16852;51.446;6.528;2024-03-25T07:04:22;9.88;;;4.28;;
27857;SDS011;16852;51.446;6.528;2024-03-25T07:06:23;11.70;;;4.93;;
27857;SDS011;16852;51.446;6.528;2024-03-25T07:08:25;10.23;;;4.28;;
27857;SDS011;16852;51.446;6.528;2024-03-25T07:10:27;13.53;;;4.17;;
27857;SDS011;16852;51.446;6.528;2024-03-25T07:12:27;13.93;;;4.85;;
27857;SDS011;16852;51.446;6.528;2024-03-25T07:14:28;12.15;;;5.10;;
27857;SDS011;16852;51.446;6.528;2024-03-25T07:16:29;14.85;;;5.57;;
27857;SDS011;16852;51.446;6.528;2024-03-25T07:18:30;11.50;;;4.65;;
27857;SDS011;16852;51.446;6.528;2024-03-25T07:20:30;11.68;;;4.57;;
27857;SDS011;16852;51.446;6.528;2024-03-25T07:22:31;9.95;;;4.20;;
27857;SDS011;16852;51.446;6.528;2024-03-25T07:24:32;13.75;;;4.65;;
27857;SDS011;16852;51.446;6.528;2024-03-25T07:26:32;10.93;;;4.32;;
27857;SDS011;16852;51.446;6.528;2024-03-25T07:28:33;12.20;;;4.88;;
27857;SDS011;16852;51.446;6.528;2024-03-25T07:30:33;9.05;;;3.97;;
27857;SDS011;16852;51.446;6.528;2024-03-25T07:32:34;11.25;;;4.75;;
27857;SDS011;16852;51.446;6.528;2024-03-25T07:34:35;8.93;;;4.68;;
27857;SDS011;16852;51.446;6.528;2024-03-25T07:36:35;8.10;;;3.67;;
27857;SDS011;16852;51.446;6.528;2024-03-25T07:38:36;11.23;;;4.00;;
27857;SDS011;16852;51.446;6.528;2024-03-25T07:40:37;12.68;;;4.80;;
27857;SDS011;16852;51.446;6.528;2024-03-25T07:42:38;12.40;;;4.20;;
27857;SDS011;16852;51.446;6.528;2024-03-25T07:44:39;11.13;;;4.50;;
27857;SDS011;16852;51.446;6.528;2024-03-25T07:46:39;8.57;;;3.85;;
27857;SDS011;16852;51.446;6.528;2024-03-25T07:48:40;11.77;;;4.50;;
27857;SDS011;16852;51.446;6.528;2024-03-25T07:50:42;13.53;;;4.47;;
27857;SDS011;16852;51.446;6.528;2024-03-25T07:52:43;12.00;;;3.88;;
27857;SDS011;16852;51.446;6.528;2024-03-25T07:54:43;9.85;;;3.78;;
27857;SDS011;16852;51.446;6.528;2024-03-25T07:56:44;12.95;;;4.38;;
27857;SDS011;16852;51.446;6.528;2024-03-25T07:58:44;13.60;;;4.40;;
27857;SDS011;16852;51.446;6.528;2024-03-25T08:00:45;9.98;;;3.70;;
27857;SDS011;16852;51.446;6.528;2024-03-25T08:02:46;10.60;;;3.72;;
27857;SDS011;16852;51.446;6.528;2024-03-25T08:04:46;8.30;;;3.70;;
27857;SDS011;16852;51.446;6.528;2024-03-25T08:06:47;10.05;;;3.33;;
27857;SDS011;16852;51.446;6.528;2024-03-25T08:08:48;8.93;;;3.85;;
27857;SDS011;16852;51.446;6.528;2024-03-25T08:10:49;10.70;;;3.90;;
27857;SDS011;16852;51.446;6.528;2024-03-25T08:12:49;11.32;;;3.70;;
27857;SDS011;16852;51.446;6.528;2024-03-25T08:14:50;10.15;;;3.65;;
27857;SDS011;16852;51.446;6.528;2024-03-25T08:16:50;10.55;;;3.92;;
27857;SDS011;16852;51.446;6.528;2024-03-25T08:18:51;10.65;;;3.70;;
27857;SDS011;16852;51.446;6.528;2024-03-25T08:20:51;10.65;;;4.38;;
27857;SDS011;16852;51.446;6.528;2024-03-25T08:22:52;11.18;;;4.35;;
27857;SDS011;16852;51.446;6.528;2024-03-25T08:24:53;11.02;;;4.40;;
27857;SDS011;16852;51.446;6.528;2024-03-25T08:26:53;13.55;;;4.70;;
27857;SDS011;16852;51.446;6.528;2024-03-25T08:28:54;8.90;;;3.72;;
27857;SDS011;16852;51.446;6.528;2024-03-25T08:30:55;12.02;;;4.45;;
27857;SDS011;16852;51.446;6.528;2024-03-25T08:32:56;9.82;;;4.13;;
27857;SDS011;16852;51.446;6.528;2024-03-25T08:34:56;10.10;;;3.92;;
27857;SDS011;16852;51.446;6.528;2024-03-25T08:36:57;14.75;;;4.68;;
27857;SDS011;16852;51.446;6.528;2024-03-25T08:38:57;10.55;;;3.90;;
27857;SDS011;16852;51.446;6.528;2024-03-25T08:40:58;14.75;;;4.18;;
27857;SDS011;16852;51.446;6.528;2024-03-25T08:42:58;12.93;;;3.97;;
27857;SDS011;16852;51.446;6.528;2024-03-25T08:44:59;11.82;;;4.07;;
27857;SDS011;16852;51.446;6.528;2024-03-25T08:47:00;11.32;;;3.80;;
27857;SDS011;16852;51.446;6.528;2024-03-25T08:49:00;10.38;;;3.65;;
27857;SDS011;16852;51.446;6.528;2024-03-25T08:51:01;13.68;;;4.10;;
27857;SDS011;16852;51.446;6.528;2024-03-25T08:53:04;8.82;;;3.28;;
27857;SDS011;16852;51.446;6.528;2024-03-25T08:55:05;11.20;;;3.78;;
27857;SDS011;16852;51.446;6.528;2024-03-25T08:57:06;14.02;;;3.40;;
27857;SDS011;16852;51.446;6.528;2024-03-25T08:59:06;9.82;;;3.72;;
27857;SDS011;16852;51.446;6.528;2024-03-25T09:03:14;9.00;;;3.47;;
27857;SDS011;16852;51.446;6.528;2024-03-25T09:05:15;11.10;;;3.40;;
27857;SDS011;16852;51.446;6.528;2024-03-25T09:07:18;10.63;;;3.22;;
27857;SDS011;16852;51.446;6.528;2024-03-25T09:09:19;9.13;;;3.22;;
27857;SDS011;16852;51.446;6.528;2024-03-25T09:11:38;8.43;;;2.60;;
27857;SDS011;16852;51.446;6.528;2024-03-25T09:13:38;14.20;;;3.22;;
27857;SDS011;16852;51.446;6.528;2024-03-25T09:15:39;10.65;;;3.30;;
27857;SDS011;16852;51.446;6.528;2024-03-25T09:17:39;10.48;;;3.00;;
27857;SDS011;16852;51.446;6.528;2024-03-25T09:19:40;8.07;;;2.92;;
27857;SDS011;16852;51.446;6.528;2024-03-25T09:21:41;11.98;;;3.78;;
27857;SDS011;16852;51.446;6.528;2024-03-25T09:23:41;14.27;;;2.92;;
27857;SDS011;16852;51.446;6.528;2024-03-25T09:25:54;14.50;;;3.63;;
27857;SDS011;16852;51.446;6.528;2024-03-25T09:27:55;12.80;;;2.88;;
27857;SDS011;16852;51.446;6.528;2024-03-25T09:29:55;9.90;;;3.38;;
27857;SDS011;16852;51.446;6.528;2024-03-25T09:31:56;8.85;;;2.65;;
27857;SDS011;16852;51.446;6.528;2024-03-25T09:33:56;12.80;;;3.35;;
27857;SDS011;16852;51.446;6.528;2024-03-25T09:35:57;9.27;;;2.97;;
27857;SDS011;16852;51.446;6.528;2024-03-25T09:37:57;7.30;;;2.35;;
27857;SDS011;16852;51.446;6.528;2024-03-25T09:39:58;10.55;;;3.10;;
27857;SDS011;16852;51.446;6.528;2024-03-25T09:41:59;5.95;;;2.42;;
27857;SDS011;16852;51.446;6.528;2024-03-25T09:44:06;8.10;;;2.78;;
27857;SDS011;16852;51.446;6.528;2024-03-25T09:46:07;9.20;;;2.70;;
27857;SDS011;16852;51.446;6.528;2024-03-25T09:48:07;11.80;;;3.00;;
27857;SDS011;16852;51.446;6.528;2024-03-25T09:50:08;11.60;;;2.78;;
27857;SDS011;16852;51.446;6.528;2024-03-25T09:52:12;9.18;;;2.90;;
27857;SDS011;16852;51.446;6.528;2024-03-25T09:54:13;7.78;;;2.67;;
27857;SDS011;16852;51.446;6.528;2024-03-25T09:56:14;9.20;;;2.70;;
27857;SDS011;16852;51.446;6.528;2024-03-25T09:58:15;8.52;;;2.90;;
27857;SDS011;16852;51.446;6.528;2024-03-25T10:00:17;11.07;;;3.50;;
27857;SDS011;16852;51.446;6.528;2024-03-25T10:02:18;8.63;;;2.95;;
27857;SDS011;16852;51.446;6.528;2024-03-25T10:04:19;7.78;;;2.60;;
27857;SDS011;16852;51.446;6.528;2024-03-25T10:06:20;5.82;;;2.60;;
27857;SDS011;16852;51.446;6.528;2024-03-25T10:08:21;13.60;;;3.95;;
27857;SDS011;16852;51.446;6.528;2024-03-25T10:10:22;9.85;;;3.22;;
27857;SDS011;16852;51.446;6.528;2024-03-25T10:12:23;9.20;;;2.70;;
27857;SDS011;16852;51.446;6.528;2024-03-25T10:14:23;7.43;;;2.85;;
27857;SDS011;16852;51.446;6.528;2024-03-25T10:16:24;17.00;;;4.20;;
27857;SDS011;16852;51.446;6.528;2024-03-25T10:18:24;8.98;;;3.20;;
27857;SDS011;16852;51.446;6.528;2024-03-25T10:20:25;7.47;;;2.40;;
27857;SDS011;16852;51.446;6.528;2024-03-25T10:22:26;11.23;;;3.53;;
27857;SDS011;16852;51.446;6.528;2024-03-25T10:24:26;13.02;;;3.22;;
27857;SDS011;16852;51.446;6.528;2024-03-25T10:26:36;8.77;;;3.60;;
27857;SDS011;16852;51.446;6.528;2024-03-25T10:28:38;13.52;;;4.03;;
27857;SDS011;16852;51.446;6.528;2024-03-25T10:30:38;16.25;;;3.72;;
27857;SDS011;16852;51.446;6.528;2024-03-25T10:32:41;9.23;;;2.80;;
27857;SDS011;16852;51.446;6.528;2024-03-25T10:34:41;7.88;;;3.05;;
27857;SDS011;16852;51.446;6.528;2024-03-25T10:36:42;8.10;;;2.88;;
27857;SDS011;16852;51.446;6.528;2024-03-25T10:38:43;9.20;;;2.92;;
27857;SDS011;16852;51.446;6.528;2024-03-25T10:40:45;9.30;;;3.45;;
27857;SDS011;16852;51.446;6.528;2024-03-25T10:42:50;12.25;;;3.67;;
27857;SDS011;16852;51.446;6.528;2024-03-25T10:44:52;9.60;;;2.50;;
27857;SDS011;16852;51.446;6.528;2024-03-25T10:46:57;9.98;;;3.15;;
27857;SDS011;16852;51.446;6.528;2024-03-25T10:49:02;14.48;;;4.03;;
27857;SDS011;16852;51.446;6.528;2024-03-25T10:51:18;6.97;;;3.22;;
27857;SDS011;16852;51.446;6.528;2024-03-25T10:53:21;10.50;;;3.90;;
27857;SDS011;16852;51.446;6.528;2024-03-25T10:55:25;8.93;;;3.10;;
27857;SDS011;16852;51.446;6.528;2024-03-25T10:57:26;7.70;;;3.25;;
27857;SDS011;16852;51.446;6.528;2024-03-25T10:59:28;8.27;;;2.75;;
27857;SDS011;16852;51.446;6.528;2024-03-25T11:01:30;7.05;;;2.92;;
27857;SDS011;16852;51.446;6.528;2024-03-25T11:03:31;7.70;;;3.08;;
27857;SDS011;16852;51.446;6.528;2024-03-25T11:05:32;8.60;;;3.13;;
27857;SDS011;16852;51.446;6.528;2024-03-25T11:07:33;12.07;;;3.75;;
27857;SDS011;16852;51.446;6.528;2024-03-25T11:09:33;6.65;;;3.08;;
27857;SDS011;16852;51.446;6.528;2024-03-25T11:11:34;9.32;;;3.28;;
27857;SDS011;16852;51.446;6.528;2024-03-25T11:13:35;10.98;;;3.35;;
27857;SDS011;16852;51.446;6.528;2024-03-25T11:15:41;7.50;;;2.80;;
27857;SDS011;16852;51.446;6.528;2024-03-25T11:17:49;10.93;;;3.65;;
27857;SDS011;16852;51.446;6.528;2024-03-25T11:19:51;4.50;;;2.50;;
27857;SDS011;16852;51.446;6.528;2024-03-25T11:21:51;7.22;;;2.72;;
27857;SDS011;16852;51.446;6.528;2024-03-25T11:23:52;11.90;;;3.85;;
27857;SDS011;16852;51.446;6.528;2024-03-25T11:25:55;8.73;;;3.55;;
27857;SDS011;16852;51.446;6.528;2024-03-25T11:27:57;9.32;;;3.10;;
27857;SDS011;16852;51.446;6.528;2024-03-25T11:29:57;8.80;;;3.13;;
27857;SDS011;16852;51.446;6.528;2024-03-25T11:32:07;7.22;;;2.70;;
27857;SDS011;16852;51.446;6.528;2024-03-25T11:34:07;9.40;;;2.95;;
27857;SDS011;16852;51.446;6.528;2024-03-25T11:36:09;7.53;;;3.08;;
27857;SDS011;16852;51.446;6.528;2024-03-25T11:38:09;7.57;;;2.80;;
27857;SDS011;16852;51.446;6.528;2024-03-25T11:40:10;8.10;;;3.20;;
27857;SDS011;16852;51.446;6.528;2024-03-25T11:42:14;7.47;;;3.47;;
27857;SDS011;16852;51.446;6.528;2024-03-25T11:44:14;11.95;;;3.70;;
27857;SDS011;16852;51.446;6.528;2024-03-25T11:46:20;8.63;;;3.90;;
27857;SDS011;16852;51.446;6.528;2024-03-25T11:48:24;7.80;;;3.50;;
27857;SDS011;16852;51.446;6.528;2024-03-25T11:50:25;8.57;;;3.30;;
27857;SDS011;16852;51.446;6.528;2024-03-25T11:52:29;8.65;;;3.47;;
27857;SDS011;16852;51.446;6.528;2024-03-25T11:54:31;8.52;;;4.20;;
27857;SDS011;16852;51.446;6.528;2024-03-25T11:56:32;12.10;;;5.10;;
27857;SDS011;16852;51.446;6.528;2024-03-25T11:58:33;10.68;;;4.32;;
27857;SDS011;16852;51.446;6.528;2024-03-25T12:00:33;7.40;;;4.03;;
27857;SDS011;16852;51.446;6.528;2024-03-25T12:02:34;11.77;;;3.60;;
27857;SDS011;16852;51.446;6.528;2024-03-25T12:04:35;8.70;;;3.65;;
27857;SDS011;16852;51.446;6.528;2024-03-25T12:06:35;9.38;;;3.85;;